createdAt,value
2024-05-09T00:00:46.819Z,13.17
2024-05-09T00:03:14.641Z,10.67
2024-05-09T00:05:43.664Z,7.93
2024-05-09T00:08:12.280Z,10.17
2024-05-09T00:10:41.139Z,10.20
2024-05-09T00:13:10.657Z,12.47
2024-05-09T00:15:39.390Z,8.43
2024-05-09T00:18:08.994Z,9.37
2024-05-09T00:20:39.895Z,8.27
2024-05-09T00:23:13.819Z,11.33
2024-05-09T00:25:45.447Z,12.83
2024-05-09T00:28:13.700Z,10.73
2024-05-09T00:30:41.403Z,8.97
2024-05-09T00:33:10.490Z,9.53
2024-05-09T00:35:39.724Z,6.90
2024-05-09T00:38:10.072Z,9.97
2024-05-09T00:40:43.523Z,8.57
2024-05-09T00:43:14.108Z,10.13
2024-05-09T00:45:43.993Z,12.70
2024-05-09T00:48:18.874Z,18.80
2024-05-09T00:50:49.844Z,10.83
2024-05-09T00:53:19.572Z,11.37
2024-05-09T00:55:48.461Z,10.47
2024-05-09T00:58:22.243Z,15.63
2024-05-09T01:00:51.162Z,11.60
2024-05-09T01:03:21.475Z,11.90
2024-05-09T01:05:52.245Z,8.27
2024-05-09T01:08:21.746Z,7.17
2024-05-09T01:10:50.707Z,6.97
2024-05-09T01:13:18.970Z,6.73
2024-05-09T01:15:48.533Z,6.33
2024-05-09T01:18:16.856Z,8.03
2024-05-09T01:20:45.629Z,7.20
2024-05-09T01:23:15.912Z,5.83
2024-05-09T01:25:46.758Z,10.57
2024-05-09T01:28:16.314Z,6.30
2024-05-09T01:30:44.839Z,7.03
2024-05-09T01:33:13.436Z,8.57
2024-05-09T01:35:43.341Z,6.00
2024-05-09T01:38:17.527Z,6.90
2024-05-09T01:40:47.496Z,7.77
2024-05-09T01:43:18.808Z,6.87
2024-05-09T01:45:46.688Z,7.93
2024-05-09T01:48:15.059Z,5.80
2024-05-09T01:50:43.637Z,6.07
2024-05-09T01:53:15.266Z,9.37
2024-05-09T01:55:44.621Z,5.00
2024-05-09T01:58:13.489Z,5.87
2024-05-09T02:00:43.189Z,6.53
2024-05-09T02:03:16.368Z,6.57
2024-05-09T02:05:49.511Z,6.33
2024-05-09T02:08:20.724Z,4.57
2024-05-09T02:10:52.917Z,5.87
2024-05-09T02:13:21.224Z,6.47
2024-05-09T02:15:52.363Z,6.40
2024-05-09T02:18:20.952Z,5.10
2024-05-09T02:20:49.349Z,5.70
2024-05-09T02:23:18.340Z,5.47
2024-05-09T02:25:46.321Z,10.67
2024-05-09T02:28:13.838Z,6.50
2024-05-09T02:30:42.879Z,6.30
2024-05-09T02:33:13.450Z,5.37
2024-05-09T02:35:44.002Z,5.97
2024-05-09T02:38:13.736Z,8.77
2024-05-09T02:40:42.176Z,6.87
2024-05-09T02:43:13.055Z,7.47
2024-05-09T02:45:42.174Z,7.80
2024-05-09T02:48:13.089Z,6.20
2024-05-09T02:50:44.424Z,7.10
2024-05-09T02:53:14.754Z,4.67
2024-05-09T02:55:43.241Z,7.97
2024-05-09T02:58:12.120Z,4.23
2024-05-09T03:00:42.561Z,6.77
2024-05-09T03:03:14.393Z,6.63
2024-05-09T03:05:45.205Z,5.07
2024-05-09T03:08:13.524Z,6.30
2024-05-09T03:10:42.691Z,7.40
2024-05-09T03:13:14.800Z,6.47
2024-05-09T03:15:45.598Z,5.83
2024-05-09T03:18:15.354Z,5.30
2024-05-09T03:20:44.775Z,7.97
2024-05-09T03:23:13.267Z,7.00
2024-05-09T03:25:40.779Z,8.43
2024-05-09T03:28:08.278Z,11.73
2024-05-09T03:30:41.158Z,6.03
2024-05-09T03:33:13.234Z,7.07
2024-05-09T03:35:42.893Z,6.07
2024-05-09T03:38:10.479Z,6.63
2024-05-09T03:40:49.311Z,7.40
2024-05-09T03:43:18.444Z,7.87
2024-05-09T03:45:50.191Z,9.73
2024-05-09T03:48:17.869Z,7.87
2024-05-09T03:50:45.946Z,9.20
2024-05-09T03:53:14.751Z,13.57
2024-05-09T03:55:42.958Z,8.70
2024-05-09T03:58:12.963Z,4.93
2024-05-09T04:00:42.291Z,6.63
2024-05-09T04:03:12.077Z,6.23
2024-05-09T04:05:42.815Z,7.40
2024-05-09T04:08:11.382Z,4.80
2024-05-09T04:10:39.237Z,5.93
2024-05-09T04:13:07.312Z,5.87
2024-05-09T04:15:35.207Z,7.30
2024-05-09T04:18:04.149Z,9.70
2024-05-09T04:20:38.110Z,5.87
2024-05-09T04:23:13.866Z,8.03
2024-05-09T04:25:45.165Z,6.83
2024-05-09T04:28:14.572Z,6.77
2024-05-09T04:30:42.893Z,10.93
2024-05-09T04:33:13.508Z,7.60
2024-05-09T04:35:45.689Z,6.77
2024-05-09T04:38:15.201Z,7.87
2024-05-09T04:40:43.307Z,5.77
2024-05-09T04:43:17.164Z,9.70
2024-05-09T04:45:45.355Z,8.87
2024-05-09T04:48:13.761Z,6.93
2024-05-09T04:50:41.841Z,7.37
2024-05-09T04:53:11.218Z,9.13
2024-05-09T04:55:40.453Z,5.87
2024-05-09T04:58:10.173Z,5.10
2024-05-09T05:00:40.300Z,7.60
2024-05-09T05:03:14.059Z,6.63
2024-05-09T05:05:45.076Z,5.10
2024-05-09T05:08:19.008Z,9.07
2024-05-09T05:10:48.879Z,5.60
2024-05-09T05:13:25.279Z,5.07
2024-05-09T05:15:57.048Z,5.73
2024-05-09T05:18:28.131Z,4.50
2024-05-09T05:20:57.051Z,4.07
2024-05-09T05:23:26.415Z,10.60
2024-05-09T05:25:54.938Z,7.67
2024-05-09T05:28:23.177Z,7.93
2024-05-09T05:30:50.861Z,4.27
2024-05-09T05:33:19.846Z,5.13
2024-05-09T05:35:48.198Z,7.50
2024-05-09T05:38:17.066Z,5.70
2024-05-09T05:40:44.659Z,3.30
2024-05-09T05:43:18.325Z,4.00
2024-05-09T05:45:46.926Z,3.60
2024-05-09T05:48:18.309Z,4.13
2024-05-09T05:50:46.953Z,5.63
2024-05-09T05:53:15.610Z,4.07
2024-05-09T05:55:44.426Z,4.80
2024-05-09T05:58:14.414Z,3.97
2024-05-09T06:00:43.245Z,3.57
2024-05-09T06:03:14.782Z,3.93
2024-05-09T06:05:48.696Z,5.00
2024-05-09T06:08:16.842Z,4.80
2024-05-09T06:10:45.330Z,6.20
2024-05-09T06:13:14.455Z,4.40
2024-05-09T06:15:43.760Z,4.63
2024-05-09T06:18:14.178Z,3.43
2024-05-09T06:20:44.128Z,5.57
2024-05-09T06:23:14.301Z,7.73
2024-05-09T06:25:43.959Z,4.87
2024-05-09T06:28:12.742Z,3.10
2024-05-09T06:30:42.614Z,3.17
2024-05-09T06:33:14.360Z,5.13
2024-05-09T06:35:46.303Z,3.63
2024-05-09T06:38:15.177Z,5.57
2024-05-09T06:40:44.691Z,4.90
2024-05-09T06:43:16.168Z,3.60
2024-05-09T06:45:49.767Z,5.27
2024-05-09T06:48:19.933Z,5.77
2024-05-09T06:50:48.727Z,4.53
2024-05-09T06:53:21.239Z,5.77
2024-05-09T06:55:49.906Z,3.23
2024-05-09T06:58:18.280Z,3.57
2024-05-09T07:00:47.108Z,6.07
2024-05-09T07:03:19.523Z,3.80
2024-05-09T07:05:49.259Z,6.03
2024-05-09T07:08:18.150Z,5.13
2024-05-09T07:10:46.669Z,5.47
2024-05-09T07:13:15.758Z,5.17
2024-05-09T07:15:44.008Z,5.57
2024-05-09T07:18:17.355Z,3.80
2024-05-09T07:20:49.322Z,4.23
2024-05-09T07:23:19.135Z,4.60
2024-05-09T07:25:47.386Z,3.30
2024-05-09T07:28:19.358Z,3.90
2024-05-09T07:30:48.066Z,2.63
2024-05-09T07:33:23.155Z,2.40
2024-05-09T07:35:54.045Z,5.67
2024-05-09T07:38:22.359Z,3.63
2024-05-09T07:40:50.612Z,5.47
2024-05-09T07:43:19.424Z,6.00
2024-05-09T07:45:52.887Z,3.47
2024-05-09T07:52:39.200Z,3.20
2024-05-09T07:53:48.319Z,2.77
2024-05-09T07:56:22.513Z,4.63
2024-05-09T07:58:53.766Z,7.40
2024-05-09T08:01:22.732Z,7.80
2024-05-09T08:03:51.477Z,3.07
2024-05-09T08:06:19.399Z,6.13
2024-05-09T08:08:47.900Z,3.63
2024-05-09T08:11:16.531Z,5.23
2024-05-09T08:13:45.190Z,4.70
2024-05-09T08:16:14.582Z,6.17
2024-05-09T08:18:43.014Z,4.20
2024-05-09T08:21:10.891Z,2.67
2024-05-09T08:23:38.702Z,3.50
2024-05-09T08:26:06.566Z,3.30
2024-05-09T08:28:34.699Z,8.13
2024-05-09T08:31:06.852Z,5.87
2024-05-09T08:33:35.551Z,4.60
2024-05-09T08:36:04.639Z,4.87
2024-05-09T08:38:32.336Z,3.37
2024-05-09T08:41:04.522Z,4.33
2024-05-09T08:43:32.613Z,4.37
2024-05-09T08:46:04.848Z,2.17
2024-05-09T08:48:36.945Z,4.83
2024-05-09T08:51:06.523Z,6.13
2024-05-09T08:53:34.622Z,4.17
2024-05-09T08:56:03.274Z,5.67
2024-05-09T08:58:33.507Z,3.40
2024-05-09T09:01:04.878Z,4.03
2024-05-09T09:03:36.926Z,5.33
2024-05-09T09:06:18.183Z,3.10
2024-05-09T09:08:47.409Z,4.37
2024-05-09T09:11:16.432Z,5.70
2024-05-09T09:13:44.460Z,5.43
2024-05-09T09:16:13.006Z,3.90
2024-05-09T09:18:46.373Z,3.33
2024-05-09T09:21:14.373Z,4.93
2024-05-09T09:23:43.547Z,3.60
2024-05-09T09:26:16.725Z,6.00
2024-05-09T09:28:45.033Z,7.17
2024-05-09T09:31:18.189Z,6.80
2024-05-09T09:33:46.833Z,3.10
2024-05-09T09:36:14.859Z,4.57
2024-05-09T09:38:44.434Z,5.27
2024-05-09T09:41:15.772Z,5.83
2024-05-09T09:43:44.727Z,4.77
2024-05-09T09:46:14.666Z,3.37
2024-05-09T09:48:44.607Z,6.23
2024-05-09T09:51:15.451Z,4.97
2024-05-09T09:53:44.861Z,3.30
2024-05-09T09:56:17.941Z,6.10
2024-05-09T09:58:48.343Z,4.83
2024-05-09T10:01:16.059Z,2.90
2024-05-09T10:03:45.593Z,4.47
2024-05-09T10:06:15.798Z,5.20
2024-05-09T10:08:47.604Z,3.93
2024-05-09T10:11:22.236Z,9.43
2024-05-09T10:13:53.756Z,9.80
2024-05-09T10:16:23.189Z,7.10
2024-05-09T10:18:52.038Z,5.17
2024-05-09T10:21:21.711Z,2.90
2024-05-09T10:24:02.932Z,4.97
2024-05-09T10:26:35.088Z,6.43
2024-05-09T10:29:19.654Z,4.30
2024-05-09T10:31:48.370Z,5.07
2024-05-09T10:34:23.819Z,6.97
2024-05-09T10:36:56.055Z,5.03
2024-05-09T10:39:37.188Z,4.40
2024-05-09T10:42:10.012Z,7.07
2024-05-09T10:44:38.364Z,6.23
2024-05-09T10:47:06.437Z,5.90
2024-05-09T10:49:35.547Z,3.90
2024-05-09T10:52:04.569Z,4.37
2024-05-09T10:54:37.483Z,3.23
2024-05-09T10:57:05.929Z,2.93
2024-05-09T10:59:37.273Z,2.70
2024-05-09T11:02:07.917Z,4.00
2024-05-09T11:04:39.789Z,7.20
2024-05-09T11:07:14.878Z,2.13
2024-05-09T11:09:43.873Z,4.53
2024-05-09T11:12:12.391Z,3.17
2024-05-09T11:14:40.188Z,4.17
2024-05-09T11:17:08.606Z,7.43
2024-05-09T11:19:42.223Z,5.17
2024-05-09T11:22:15.110Z,3.33
2024-05-09T11:24:44.034Z,5.13
2024-05-09T11:27:12.782Z,5.70
2024-05-09T11:29:45.625Z,3.50
2024-05-09T11:32:14.996Z,2.97
2024-05-09T11:34:43.228Z,1.92
2024-05-09T11:37:12.298Z,3.00
2024-05-09T11:39:40.205Z,3.60
2024-05-09T11:42:08.103Z,5.13
2024-05-09T11:44:36.288Z,3.80
2024-05-09T11:47:04.982Z,4.63
2024-05-09T11:49:33.352Z,3.47
2024-05-09T11:52:01.517Z,2.97
2024-05-09T11:54:29.937Z,4.47
2024-05-09T11:56:58.100Z,2.67
2024-05-09T11:59:25.939Z,5.03
2024-05-09T12:01:53.637Z,3.05
2024-05-09T12:04:22.224Z,4.55
2024-05-09T12:06:49.986Z,3.08
2024-05-09T12:09:17.985Z,3.10
2024-05-09T12:11:45.856Z,5.32
2024-05-09T12:14:13.823Z,6.07
2024-05-09T12:16:41.831Z,5.20
2024-05-09T12:19:10.429Z,4.67
2024-05-09T12:21:40.022Z,4.85
2024-05-09T12:24:08.722Z,5.53
2024-05-09T12:26:36.998Z,3.00
2024-05-09T12:29:05.088Z,4.90
2024-05-09T12:31:32.915Z,6.18
2024-05-09T12:34:00.922Z,4.10
2024-05-09T12:36:28.906Z,3.55
2024-05-09T12:38:56.996Z,5.30
2024-05-09T12:41:26.033Z,2.57
2024-05-09T12:43:53.942Z,3.40
2024-05-09T12:46:23.303Z,3.08
2024-05-09T12:48:53.393Z,5.65
2024-05-09T12:51:21.835Z,3.13
2024-05-09T12:53:50.704Z,3.13
2024-05-09T12:56:18.944Z,2.92
2024-05-09T12:58:48.002Z,9.73
2024-05-09T13:01:15.848Z,4.85
2024-05-09T13:03:43.990Z,7.27
2024-05-09T13:06:11.858Z,2.95
2024-05-09T13:08:39.930Z,3.37
2024-05-09T13:11:07.666Z,3.20
2024-05-09T13:13:38.331Z,6.83
2024-05-09T13:16:06.456Z,3.90
2024-05-09T13:18:36.441Z,6.53
2024-05-09T13:21:04.736Z,5.05
2024-05-09T13:23:32.598Z,2.30
2024-05-09T13:26:00.109Z,4.53
2024-05-09T13:28:27.742Z,4.63
2024-05-09T13:30:55.328Z,3.42
2024-05-09T13:33:23.219Z,4.03
2024-05-09T13:35:51.291Z,4.35
2024-05-09T13:38:20.847Z,3.78
2024-05-09T13:40:49.875Z,5.80
2024-05-09T13:43:18.645Z,2.35
2024-05-09T13:45:46.769Z,3.30
2024-05-09T13:48:14.800Z,8.13
2024-05-09T13:50:42.578Z,4.57
2024-05-09T13:53:10.766Z,4.05
2024-05-09T13:55:39.723Z,4.05
2024-05-09T13:58:08.320Z,3.00
2024-05-09T14:00:44.993Z,6.20
2024-05-09T14:03:20.092Z,3.95
2024-05-09T14:05:51.200Z,6.43
2024-05-09T14:08:22.096Z,6.70
2024-05-09T14:10:50.673Z,6.93
2024-05-09T14:13:19.916Z,3.78
2024-05-09T14:15:47.758Z,5.63
2024-05-09T14:18:15.297Z,8.48
2024-05-09T14:20:43.402Z,3.92
2024-05-09T14:23:11.050Z,6.25
2024-05-09T14:25:42.606Z,4.05
2024-05-09T14:28:13.324Z,7.03
2024-05-09T14:30:42.600Z,4.78
2024-05-09T14:33:11.224Z,5.22
2024-05-09T14:35:39.362Z,6.13
2024-05-09T14:38:08.731Z,4.85
2024-05-09T14:40:41.975Z,4.05
2024-05-09T14:43:13.727Z,5.80
2024-05-09T14:45:42.301Z,8.52
2024-05-09T14:48:11.747Z,7.57
2024-05-09T14:50:40.648Z,7.63
2024-05-09T14:53:10.856Z,11.57
2024-05-09T14:55:40.674Z,3.85
2024-05-09T14:58:11.036Z,6.97
2024-05-09T15:00:47.717Z,5.70
2024-05-09T15:03:21.824Z,6.18
2024-05-09T15:05:51.387Z,9.48
2024-05-09T15:08:19.820Z,5.22
2024-05-09T15:10:49.890Z,10.77
2024-05-09T15:13:19.490Z,4.90
2024-05-09T15:15:47.232Z,12.18
2024-05-09T15:18:15.691Z,3.53
2024-05-09T15:20:45.088Z,9.05
2024-05-09T15:23:14.688Z,6.40
2024-05-09T15:25:44.632Z,5.88
2024-05-09T15:28:12.295Z,5.72
2024-05-09T15:30:42.017Z,8.45
2024-05-09T15:33:11.315Z,6.95
2024-05-09T15:35:41.580Z,9.05
2024-05-09T15:38:09.719Z,9.02
2024-05-09T15:40:40.059Z,10.90
2024-05-09T15:43:11.007Z,6.43
2024-05-09T15:45:41.020Z,6.43
2024-05-09T15:48:10.531Z,6.07
2024-05-09T15:50:41.204Z,9.52
2024-05-09T15:53:12.177Z,10.27
2024-05-09T15:55:41.852Z,12.02
2024-05-09T15:58:09.821Z,9.30
2024-05-09T16:00:41.520Z,5.55
2024-05-09T16:03:13.257Z,9.00
2024-05-09T16:05:48.085Z,10.50
2024-05-09T16:08:16.825Z,19.02
2024-05-09T16:10:47.372Z,7.40
2024-05-09T16:13:16.888Z,9.50
2024-05-09T16:15:45.824Z,8.20
2024-05-09T16:18:13.701Z,12.20
2024-05-09T16:20:42.659Z,7.40
2024-05-09T16:23:12.067Z,10.00
2024-05-09T16:25:40.266Z,10.77
2024-05-09T16:28:10.452Z,10.52
2024-05-09T16:30:40.060Z,8.77
2024-05-09T16:33:08.765Z,5.70
2024-05-09T16:35:39.302Z,11.10
2024-05-09T16:38:06.935Z,9.32
2024-05-09T16:40:38.991Z,4.63
2024-05-09T16:43:13.370Z,6.45
2024-05-09T16:45:46.288Z,9.00
2024-05-09T16:48:14.965Z,9.32
2024-05-09T16:50:42.877Z,12.25
2024-05-09T16:53:10.675Z,11.65
2024-05-09T16:55:38.623Z,5.28
2024-05-09T16:58:08.346Z,9.73
2024-05-09T17:00:41.383Z,8.30
2024-05-09T17:03:14.850Z,6.00
2024-05-09T17:05:46.423Z,8.53
2024-05-09T17:08:18.128Z,9.60
2024-05-09T17:10:47.350Z,9.30
2024-05-09T17:13:15.426Z,13.33
2024-05-09T17:15:43.006Z,10.40
2024-05-09T17:18:10.663Z,10.63
2024-05-09T17:20:38.256Z,13.13
2024-05-09T17:23:15.443Z,9.97
2024-05-09T17:25:43.845Z,11.87
2024-05-09T17:28:12.258Z,11.23
2024-05-09T17:30:41.996Z,12.60
2024-05-09T17:33:12.813Z,13.77
2024-05-09T17:35:40.975Z,14.50
2024-05-09T17:38:08.995Z,17.43
2024-05-09T17:40:38.173Z,10.63
2024-05-09T17:43:09.550Z,21.23
2024-05-09T17:45:42.114Z,11.70
2024-05-09T17:48:11.906Z,15.50
2024-05-09T17:50:41.693Z,15.80
2024-05-09T17:53:10.413Z,13.33
2024-05-09T17:55:38.939Z,9.17
2024-05-09T17:58:06.720Z,18.47
2024-05-09T18:00:39.350Z,15.13
2024-05-09T18:03:13.953Z,14.57
2024-05-09T18:05:43.837Z,18.47
2024-05-09T18:08:12.757Z,15.93
2024-05-09T18:10:41.300Z,14.03
2024-05-09T18:13:10.044Z,13.73
2024-05-09T18:15:38.960Z,14.33
2024-05-09T18:18:07.436Z,18.80
2024-05-09T18:20:42.334Z,20.20
2024-05-09T18:23:16.135Z,16.53
2024-05-09T18:25:45.595Z,17.90
2024-05-09T18:28:13.668Z,14.60
2024-05-09T18:30:41.448Z,20.73
2024-05-09T18:33:12.417Z,15.23
2024-05-09T18:35:43.927Z,18.03
2024-05-09T18:38:11.585Z,13.67
2024-05-09T18:40:40.396Z,14.63
2024-05-09T18:43:10.183Z,17.33
2024-05-09T18:45:38.682Z,14.40
2024-05-09T18:48:09.113Z,19.40
2024-05-09T18:50:40.061Z,18.37
2024-05-09T18:53:12.909Z,17.23
2024-05-09T18:55:44.195Z,15.33
2024-05-09T18:58:11.888Z,16.97
2024-05-09T19:00:41.769Z,16.50
2024-05-09T19:03:13.837Z,15.83
2024-05-09T19:05:44.637Z,13.83
2024-05-09T19:08:14.546Z,12.97
2024-05-09T19:10:42.244Z,16.63
2024-05-09T19:13:12.737Z,14.00
2024-05-09T19:15:43.374Z,13.40
2024-05-09T19:18:15.217Z,13.20
2024-05-09T19:20:44.302Z,16.93
2024-05-09T19:23:12.260Z,14.53
2024-05-09T19:25:40.305Z,14.65
2024-05-09T19:28:09.325Z,13.53
2024-05-09T19:30:40.971Z,16.30
2024-05-09T19:33:14.744Z,15.23
2024-05-09T19:35:43.876Z,13.63
2024-05-09T19:38:13.059Z,14.87
2024-05-09T19:40:41.035Z,14.13
2024-05-09T19:43:08.886Z,14.37
2024-05-09T19:45:36.873Z,13.20
2024-05-09T19:48:07.006Z,13.00
2024-05-09T19:50:41.603Z,13.57
2024-05-09T19:53:15.246Z,12.93
2024-05-09T19:55:43.266Z,14.33
2024-05-09T19:58:11.839Z,18.27
2024-05-09T20:00:42.304Z,14.90
2024-05-09T20:03:15.112Z,13.23
2024-05-09T20:05:46.683Z,17.80
2024-05-09T20:08:15.053Z,15.03
2024-05-09T20:10:43.065Z,13.63
2024-05-09T20:13:10.766Z,13.90
2024-05-09T20:15:38.742Z,16.27
2024-05-09T20:18:07.131Z,14.80
2024-05-09T20:20:39.583Z,12.63
2024-05-09T20:23:11.547Z,14.23
2024-05-09T20:25:39.480Z,13.70
2024-05-09T20:28:07.388Z,15.13
2024-05-09T20:30:36.180Z,15.10
2024-05-09T20:33:07.282Z,18.33
2024-05-09T20:35:36.276Z,14.63
2024-05-09T20:38:04.773Z,17.87
2024-05-09T20:40:36.981Z,18.37
2024-05-09T20:43:10.572Z,18.30
2024-05-09T20:45:38.903Z,20.37
2024-05-09T20:48:08.438Z,16.00
2024-05-09T20:50:40.102Z,15.17
2024-05-09T20:53:12.592Z,16.33
2024-05-09T20:55:41.813Z,17.90
2024-05-09T20:58:10.332Z,16.50
2024-05-09T21:00:41.931Z,18.60
2024-05-09T21:03:14.881Z,14.67
2024-05-09T21:05:43.999Z,15.63
2024-05-09T21:08:11.551Z,16.37
2024-05-09T21:10:39.146Z,17.27
2024-05-09T21:13:07.335Z,16.63
2024-05-09T21:15:36.122Z,15.73
2024-05-09T21:18:04.780Z,17.00
2024-05-09T21:20:34.866Z,16.87
2024-05-09T21:23:03.107Z,14.67
2024-05-09T21:25:31.558Z,16.17
2024-05-09T21:27:59.112Z,17.47
2024-05-09T21:30:32.752Z,18.97
2024-05-09T21:33:09.781Z,17.30
2024-05-09T21:35:38.885Z,18.13
2024-05-09T21:38:07.733Z,16.90
2024-05-09T21:40:36.928Z,14.50
2024-05-09T21:43:09.280Z,15.93
2024-05-09T21:45:37.391Z,15.03
2024-05-09T21:48:07.308Z,15.37
2024-05-09T21:50:40.318Z,20.50
2024-05-09T21:53:11.731Z,16.07
2024-05-09T21:55:39.641Z,17.90
2024-05-09T21:58:07.155Z,16.93
2024-05-09T22:00:38.248Z,16.73
2024-05-09T22:03:08.600Z,18.33
2024-05-09T22:05:37.663Z,15.57
2024-05-09T22:08:05.976Z,17.50
2024-05-09T22:10:35.865Z,18.57
2024-05-09T22:13:09.166Z,18.90
2024-05-09T22:15:39.594Z,17.70
2024-05-09T22:18:10.365Z,17.10
2024-05-09T22:20:44.842Z,18.80
2024-05-09T22:23:15.775Z,20.47
2024-05-09T22:25:43.224Z,20.03
2024-05-09T22:28:14.105Z,18.07
2024-05-09T22:30:43.919Z,18.97
2024-05-09T22:33:12.576Z,18.03
2024-05-09T22:35:41.040Z,19.47
2024-05-09T22:38:09.834Z,19.43
2024-05-09T22:40:45.931Z,19.37
2024-05-09T22:43:23.146Z,16.70
2024-05-09T22:45:54.401Z,22.00
2024-05-09T22:48:24.733Z,19.57
2024-05-09T22:50:53.906Z,17.77
2024-05-09T22:53:25.772Z,22.40
2024-05-09T22:55:54.594Z,19.00
2024-05-09T22:58:23.873Z,17.20
2024-05-09T23:00:51.879Z,16.70
2024-05-09T23:03:21.559Z,17.07
2024-05-09T23:05:50.004Z,18.00
2024-05-09T23:08:17.596Z,16.10
2024-05-09T23:10:45.156Z,15.93
2024-05-09T23:13:14.024Z,15.63
2024-05-09T23:15:41.607Z,15.40
2024-05-09T23:18:09.691Z,16.30
2024-05-09T23:20:39.870Z,14.80
2024-05-09T23:23:10.521Z,14.97
2024-05-09T23:25:43.966Z,14.23
2024-05-09T23:28:11.867Z,16.07
2024-05-09T23:30:41.060Z,16.37
2024-05-09T23:33:12.234Z,15.53
2024-05-09T23:35:42.440Z,17.27
2024-05-09T23:38:11.063Z,14.07
2024-05-09T23:40:40.904Z,15.00
2024-05-09T23:43:12.685Z,17.70
2024-05-09T23:45:43.604Z,13.73
2024-05-09T23:48:11.686Z,17.50
2024-05-09T23:50:40.448Z,15.13
2024-05-09T23:53:10.662Z,17.33
2024-05-09T23:55:39.157Z,14.47
2024-05-09T23:58:07.928Z,18.60
